createdAt,value
2019-05-26T00:00:26.069Z,24.40
2019-05-26T00:01:05.019Z,24.40
2019-05-26T00:01:44.519Z,24.40
2019-05-26T00:02:23.935Z,24.50
2019-05-26T00:03:03.127Z,24.60
2019-05-26T00:03:42.407Z,24.70
2019-05-26T00:04:22.327Z,24.80
2019-05-26T00:05:01.776Z,24.90
2019-05-26T00:05:41.482Z,25.00
2019-05-26T00:06:20.926Z,25.00
2019-05-26T00:06:59.913Z,25.10
2019-05-26T00:07:39.947Z,25.10
2019-05-26T00:08:19.845Z,25.00
2019-05-26T00:09:00.637Z,24.90
2019-05-26T00:09:40.083Z,24.80
2019-05-26T00:10:19.718Z,24.60
2019-05-26T00:10:58.546Z,24.50
2019-05-26T00:11:37.513Z,24.40
2019-05-26T00:12:16.500Z,24.30
2019-05-26T00:12:54.884Z,24.30
2019-05-26T00:13:33.805Z,24.40
2019-05-26T00:14:12.863Z,24.50
2019-05-26T00:14:51.826Z,24.60
2019-05-26T00:15:31.633Z,24.70
2019-05-26T00:16:15.036Z,24.80
2019-05-26T00:16:54.367Z,24.90
2019-05-26T00:17:34.095Z,25.00
2019-05-26T00:18:13.836Z,25.00
2019-05-26T00:18:52.887Z,25.10
2019-05-26T00:19:32.499Z,25.00
2019-05-26T00:20:12.089Z,24.90
2019-05-26T00:20:51.440Z,24.80
2019-05-26T00:21:31.047Z,24.60
2019-05-26T00:22:11.264Z,24.50
2019-05-26T00:22:50.433Z,24.30
2019-05-26T00:23:30.125Z,24.20
2019-05-26T00:24:09.707Z,24.20
2019-05-26T00:24:49.023Z,24.30
2019-05-26T00:25:28.994Z,24.40
2019-05-26T00:26:08.351Z,24.50
2019-05-26T00:26:47.196Z,24.60
2019-05-26T00:27:26.880Z,24.70
2019-05-26T00:28:06.204Z,24.80
2019-05-26T00:28:45.243Z,24.90
2019-05-26T00:29:25.480Z,24.90
2019-05-26T00:30:05.580Z,25.00
2019-05-26T00:30:44.593Z,25.00
2019-05-26T00:31:42.247Z,25.00
2019-05-26T00:32:22.187Z,24.80
2019-05-26T00:33:01.140Z,24.60
2019-05-26T00:33:40.640Z,24.50
2019-05-26T00:34:20.404Z,24.40
2019-05-26T00:34:59.527Z,24.40
2019-05-26T00:35:39.144Z,24.50
2019-05-26T00:36:18.744Z,24.50
2019-05-26T00:36:57.813Z,24.60
2019-05-26T00:37:48.268Z,24.70
2019-05-26T00:38:19.463Z,24.80
2019-05-26T00:38:58.332Z,24.90
2019-05-26T00:39:38.720Z,24.90
2019-05-26T00:40:19.020Z,25.00
2019-05-26T00:40:59.347Z,25.10
2019-05-26T00:41:39.031Z,25.00
2019-05-26T00:42:18.503Z,25.00
2019-05-26T00:42:57.251Z,24.90
2019-05-26T00:43:37.735Z,24.70
2019-05-26T00:44:17.402Z,24.60
2019-05-26T00:44:57.031Z,24.40
2019-05-26T00:45:36.828Z,24.30
2019-05-26T00:46:16.569Z,24.30
2019-05-26T00:46:56.323Z,24.40
2019-05-26T00:47:36.236Z,24.40
2019-05-26T00:48:15.959Z,24.50
2019-05-26T00:48:55.233Z,24.60
2019-05-26T00:49:35.095Z,24.70
2019-05-26T00:50:14.487Z,24.80
2019-05-26T00:50:53.428Z,24.90
2019-05-26T00:51:32.771Z,25.00
2019-05-26T00:52:12.179Z,25.00
2019-05-26T00:52:51.131Z,25.00
2019-05-26T00:53:30.962Z,25.00
2019-05-26T00:54:10.907Z,25.00
2019-05-26T00:54:49.939Z,24.90
2019-05-26T00:55:29.220Z,24.70
2019-05-26T00:56:08.956Z,24.60
2019-05-26T00:56:48.135Z,24.50
2019-05-26T00:57:28.454Z,24.40
2019-05-26T00:58:09.004Z,24.40
2019-05-26T00:58:48.138Z,24.40
2019-05-26T00:59:27.603Z,24.50
2019-05-26T01:00:07.271Z,24.60
2019-05-26T01:00:46.817Z,24.60
2019-05-26T01:01:27.328Z,24.70
2019-05-26T01:02:06.828Z,24.80
2019-05-26T01:02:45.989Z,24.90
2019-05-26T01:03:26.819Z,25.00
2019-05-26T01:04:06.458Z,25.00
2019-05-26T01:04:45.439Z,25.00
2019-05-26T01:05:24.740Z,25.00
2019-05-26T01:06:04.316Z,24.90
2019-05-26T01:06:43.977Z,24.80
2019-05-26T01:07:23.777Z,24.60
2019-05-26T01:08:06.616Z,24.60
2019-05-26T01:08:44.297Z,24.40
2019-05-26T01:09:24.121Z,24.30
2019-05-26T01:10:03.845Z,24.30
2019-05-26T01:10:43.276Z,24.30
2019-05-26T01:11:22.779Z,24.40
2019-05-26T01:12:02.414Z,24.50
2019-05-26T01:12:41.497Z,24.60
2019-05-26T01:13:21.172Z,24.70
2019-05-26T01:14:01.092Z,24.70
2019-05-26T01:14:40.179Z,24.90
2019-05-26T01:15:19.930Z,24.90
2019-05-26T01:16:00.076Z,25.00
2019-05-26T01:16:39.240Z,25.00
2019-05-26T01:17:21.239Z,25.10
2019-05-26T01:18:00.831Z,25.00
2019-05-26T01:18:40.664Z,24.90
2019-05-26T01:19:19.604Z,24.70
2019-05-26T01:19:58.586Z,24.60
2019-05-26T01:20:38.260Z,24.50
2019-05-26T01:21:17.818Z,24.40
2019-05-26T01:21:57.804Z,24.40
2019-05-26T01:22:36.823Z,24.40
2019-05-26T01:23:16.468Z,24.40
2019-05-26T01:23:56.224Z,24.50
2019-05-26T01:24:35.620Z,24.60
2019-05-26T01:25:15.293Z,24.70
2019-05-26T01:25:55.111Z,24.80
2019-05-26T01:26:33.977Z,24.90
2019-05-26T01:27:13.627Z,24.90
2019-05-26T01:27:53.427Z,25.00
2019-05-26T01:28:31.827Z,25.10
2019-05-26T01:29:10.780Z,25.10
2019-05-26T01:29:49.738Z,25.00
2019-05-26T01:30:37.803Z,24.90
2019-05-26T01:31:16.799Z,24.80
2019-05-26T01:31:55.847Z,24.60
2019-05-26T01:32:34.210Z,24.50
2019-05-26T01:33:13.191Z,24.40
2019-05-26T01:33:52.155Z,24.20
2019-05-26T01:34:30.633Z,24.20
2019-05-26T01:35:09.980Z,24.10
2019-05-26T01:36:07.189Z,24.20
2019-05-26T01:36:46.151Z,24.20
2019-05-26T01:37:25.511Z,24.40
2019-05-26T01:38:20.635Z,24.50
2019-05-26T01:38:45.312Z,24.60
2019-05-26T01:39:25.099Z,24.70
2019-05-26T01:40:04.763Z,24.80
2019-05-26T01:40:47.498Z,24.90
2019-05-26T01:41:27.383Z,25.00
2019-05-26T01:42:06.843Z,25.00
2019-05-26T01:42:46.459Z,25.00
2019-05-26T01:43:26.085Z,24.90
2019-05-26T01:44:24.882Z,24.70
2019-05-26T01:45:03.504Z,24.60
2019-05-26T01:45:43.284Z,24.50
2019-05-26T01:46:23.004Z,24.40
2019-05-26T01:47:01.959Z,24.30
2019-05-26T01:47:41.542Z,24.20
2019-05-26T01:48:21.420Z,24.10
2019-05-26T01:49:00.686Z,24.00
2019-05-26T01:49:41.085Z,24.00
2019-05-26T01:50:21.178Z,23.90
2019-05-26T01:51:00.375Z,23.90
2019-05-26T01:51:39.946Z,23.80
2019-05-26T01:52:19.595Z,23.80
2019-05-26T01:52:58.826Z,23.70
2019-05-26T01:53:38.783Z,23.70
2019-05-26T01:54:18.483Z,23.70
2019-05-26T01:54:57.839Z,23.90
2019-05-26T01:55:38.239Z,24.00
2019-05-26T01:56:18.495Z,24.10
2019-05-26T01:57:57.080Z,24.40
2019-05-26T01:58:36.579Z,24.50
2019-05-26T01:59:15.915Z,24.60
2019-05-26T01:59:56.083Z,24.70
2019-05-26T02:00:35.958Z,24.80
2019-05-26T02:01:14.627Z,24.80
2019-05-26T02:01:54.120Z,24.70
2019-05-26T02:02:33.688Z,24.60
2019-05-26T02:03:12.766Z,24.50
2019-05-26T02:03:52.344Z,24.40
2019-05-26T02:04:32.755Z,24.20
2019-05-26T02:05:11.832Z,24.10
2019-05-26T02:05:51.774Z,24.00
2019-05-26T02:06:31.341Z,24.00
2019-05-26T02:07:10.075Z,23.90
2019-05-26T02:07:49.787Z,23.80
2019-05-26T02:08:38.877Z,23.80
2019-05-26T02:09:11.129Z,23.80
2019-05-26T02:09:50.920Z,23.70
2019-05-26T02:10:30.731Z,23.70
2019-05-26T02:11:10.127Z,23.60
2019-05-26T02:11:49.831Z,23.60
2019-05-26T02:12:29.550Z,23.50
2019-05-26T02:13:08.727Z,23.50
2019-05-26T02:13:48.419Z,23.40
2019-05-26T02:14:27.996Z,23.40
2019-05-26T02:15:07.256Z,23.40
2019-05-26T02:15:47.691Z,23.40
2019-05-26T02:16:27.517Z,23.40
2019-05-26T02:17:07.379Z,23.40
2019-05-26T02:17:47.111Z,23.30
2019-05-26T02:18:26.679Z,23.30
2019-05-26T02:19:05.755Z,23.30
2019-05-26T02:19:45.367Z,23.20
2019-05-26T02:20:25.015Z,23.20
2019-05-26T02:21:04.155Z,23.20
2019-05-26T02:21:43.691Z,23.20
2019-05-26T02:22:24.059Z,23.30
2019-05-26T02:23:03.581Z,23.20
2019-05-26T02:23:43.189Z,23.20
2019-05-26T02:24:22.859Z,23.20
2019-05-26T02:25:01.907Z,23.10
2019-05-26T02:25:41.816Z,23.10
2019-05-26T02:26:21.869Z,23.10
2019-05-26T02:27:01.403Z,23.30
2019-05-26T02:27:41.711Z,23.50
2019-05-26T02:28:21.494Z,23.70
2019-05-26T02:29:00.620Z,23.90
2019-05-26T02:29:40.407Z,24.10
2019-05-26T02:30:20.192Z,24.30
2019-05-26T02:30:59.318Z,24.50
2019-05-26T02:31:39.080Z,24.60
2019-05-26T02:32:19.141Z,24.70
2019-05-26T02:32:58.611Z,24.80
2019-05-26T02:33:38.390Z,24.70
2019-05-26T02:34:17.799Z,24.60
2019-05-26T02:34:57.081Z,24.50
2019-05-26T02:35:37.022Z,24.40
2019-05-26T02:36:18.744Z,24.30
2019-05-26T02:36:58.501Z,24.20
2019-05-26T02:37:38.275Z,24.10
2019-05-26T02:38:17.949Z,24.10
2019-05-26T02:39:02.872Z,24.10
2019-05-26T02:39:37.939Z,24.00
2019-05-26T02:40:17.772Z,24.00
2019-05-26T02:40:57.613Z,24.00
2019-05-26T02:41:37.214Z,23.90
2019-05-26T02:42:17.022Z,23.90
2019-05-26T02:42:56.124Z,23.90
2019-05-26T02:43:35.777Z,23.90
2019-05-26T02:44:15.554Z,24.00
2019-05-26T02:44:59.054Z,24.00
2019-05-26T02:45:35.801Z,24.00
2019-05-26T02:46:15.700Z,24.10
2019-05-26T02:46:55.165Z,24.20
2019-05-26T02:47:34.947Z,24.40
2019-05-26T02:48:16.801Z,24.60
2019-05-26T02:48:55.921Z,24.70
2019-05-26T02:49:35.577Z,24.80
2019-05-26T02:50:16.242Z,24.90
2019-05-26T02:50:56.055Z,24.90
2019-05-26T02:51:35.829Z,25.00
2019-05-26T02:52:15.536Z,25.10
2019-05-26T02:52:54.554Z,25.10
2019-05-26T02:53:35.862Z,25.20
2019-05-26T02:54:15.552Z,25.20
2019-05-26T02:54:54.761Z,25.30
2019-05-26T02:55:34.485Z,25.30
2019-05-26T02:56:14.095Z,25.40
2019-05-26T02:56:53.134Z,25.40
2019-05-26T02:57:33.143Z,25.40
2019-05-26T02:58:13.032Z,25.40
2019-05-26T02:58:52.479Z,25.50
2019-05-26T02:59:32.196Z,25.50
2019-05-26T03:00:12.321Z,25.50
2019-05-26T03:00:51.471Z,25.50
2019-05-26T03:01:32.445Z,25.60
2019-05-26T03:02:12.071Z,25.60
2019-05-26T03:02:51.260Z,25.60
2019-05-26T03:03:31.045Z,25.60
2019-05-26T03:04:10.631Z,25.70
2019-05-26T03:04:50.866Z,25.70
2019-05-26T03:05:31.971Z,25.70
2019-05-26T03:06:11.741Z,25.70
2019-05-26T03:06:51.073Z,25.70
2019-05-26T03:07:30.965Z,25.80
2019-05-26T03:08:10.323Z,25.80
2019-05-26T03:08:49.650Z,25.80
2019-05-26T03:09:29.587Z,25.80
2019-05-26T03:10:10.269Z,25.80
2019-05-26T03:10:49.274Z,25.80
2019-05-26T03:11:29.085Z,25.90
2019-05-26T03:12:10.227Z,25.90
2019-05-26T03:12:50.895Z,25.90
2019-05-26T03:13:30.725Z,25.90
2019-05-26T03:14:10.462Z,26.00
2019-05-26T03:14:49.816Z,26.00
2019-05-26T03:15:29.202Z,26.00
2019-05-26T03:16:08.830Z,26.00
2019-05-26T03:16:48.168Z,26.00
2019-05-26T03:17:28.237Z,26.00
2019-05-26T03:18:48.133Z,26.00
2019-05-26T03:19:27.135Z,26.00
2019-05-26T03:20:06.102Z,26.10
2019-05-26T03:20:44.513Z,26.10
2019-05-26T03:21:24.618Z,26.10
2019-05-26T03:22:04.213Z,26.10
2019-05-26T03:22:44.464Z,26.10
2019-05-26T03:23:23.467Z,26.10
2019-05-26T03:24:02.839Z,26.10
2019-05-26T03:24:41.748Z,26.20
2019-05-26T03:25:22.382Z,26.20
2019-05-26T03:26:01.823Z,26.20
2019-05-26T03:26:40.253Z,26.20
2019-05-26T03:27:19.411Z,26.20
2019-05-26T03:27:58.739Z,26.20
2019-05-26T03:28:37.148Z,26.20
2019-05-26T03:29:17.183Z,26.20
2019-05-26T03:29:56.407Z,26.20
2019-05-26T03:30:34.951Z,26.20
2019-05-26T03:31:14.744Z,26.30
2019-05-26T03:31:54.066Z,26.30
2019-05-26T03:32:33.153Z,26.30
2019-05-26T03:33:12.636Z,26.30
2019-05-26T03:33:53.293Z,26.30
2019-05-26T03:34:32.252Z,26.30
2019-05-26T03:35:12.799Z,26.30
2019-05-26T03:35:52.164Z,26.30
2019-05-26T03:36:31.269Z,26.40
2019-05-26T03:37:11.100Z,26.40
2019-05-26T03:37:50.217Z,26.40
2019-05-26T03:38:29.061Z,26.40
2019-05-26T03:39:10.357Z,26.40
2019-05-26T03:39:49.840Z,26.40
2019-05-26T03:41:10.046Z,26.40
2019-05-26T03:41:51.772Z,26.50
2019-05-26T03:42:31.539Z,26.40
2019-05-26T03:43:10.607Z,26.40
2019-05-26T03:43:50.377Z,26.50
2019-05-26T03:44:30.669Z,26.50
2019-05-26T03:45:10.372Z,26.50
2019-05-26T03:46:21.107Z,26.50
2019-05-26T03:47:00.248Z,26.50
2019-05-26T03:47:40.282Z,26.50
2019-05-26T03:48:19.874Z,26.60
2019-05-26T03:48:59.502Z,26.50
2019-05-26T03:49:39.025Z,26.50
2019-05-26T03:50:19.266Z,26.60
2019-05-26T03:55:49.777Z,26.60
2019-05-26T03:56:28.213Z,26.60
2019-05-26T03:57:08.035Z,26.70
2019-05-26T03:57:48.954Z,26.60
2019-05-26T03:58:27.325Z,26.70
2019-05-26T03:59:07.485Z,26.60
2019-05-26T03:59:46.507Z,26.70
2019-05-26T04:00:25.714Z,26.70
2019-05-26T04:01:05.224Z,26.70
2019-05-26T04:01:44.942Z,26.70
2019-05-26T04:02:24.662Z,26.70
2019-05-26T04:03:06.579Z,26.70
2019-05-26T04:03:46.164Z,26.70
2019-05-26T04:04:25.292Z,26.70
2019-05-26T04:05:04.889Z,26.80
2019-05-26T04:06:24.300Z,26.70
2019-05-26T04:07:03.841Z,26.80
2019-05-26T04:07:43.309Z,26.80
2019-05-26T04:08:22.225Z,26.80
2019-05-26T04:09:01.789Z,26.80
2019-05-26T04:10:02.645Z,26.80
2019-05-26T04:10:22.744Z,26.80
2019-05-26T04:11:02.497Z,26.80
2019-05-26T04:12:29.614Z,26.80
2019-05-26T04:13:09.414Z,26.80
2019-05-26T04:13:48.979Z,26.80
2019-05-26T04:14:28.122Z,26.80
2019-05-26T04:15:07.920Z,26.80
2019-05-26T04:15:47.556Z,26.80
2019-05-26T04:16:26.512Z,26.80
2019-05-26T04:17:06.250Z,26.90
2019-05-26T04:17:45.814Z,26.90
2019-05-26T04:18:24.851Z,26.90
2019-05-26T04:19:04.256Z,26.90
2019-05-26T04:19:44.671Z,26.90
2019-05-26T04:20:23.720Z,26.90
2019-05-26T04:21:03.918Z,26.90
2019-05-26T04:21:43.568Z,26.90
2019-05-26T04:22:22.631Z,26.90
2019-05-26T04:23:02.230Z,26.90
2019-05-26T04:23:42.875Z,26.90
2019-05-26T04:24:21.944Z,27.00
2019-05-26T04:25:03.611Z,27.00
2019-05-26T04:25:44.296Z,27.00
2019-05-26T04:26:23.123Z,27.00
2019-05-26T04:27:02.704Z,27.00
2019-05-26T04:27:45.331Z,27.00
2019-05-26T04:28:26.615Z,27.00
2019-05-26T04:29:06.122Z,27.00
2019-05-26T04:29:46.942Z,27.00
2019-05-26T04:30:26.038Z,27.00
2019-05-26T04:31:05.542Z,27.00
2019-05-26T04:31:45.057Z,27.00
2019-05-26T04:32:24.276Z,27.00
2019-05-26T04:33:04.065Z,27.00
2019-05-26T04:33:43.552Z,27.10
2019-05-26T04:34:22.844Z,27.10
2019-05-26T04:35:02.415Z,27.10
2019-05-26T04:35:41.669Z,27.10
2019-05-26T04:36:20.907Z,27.10
2019-05-26T04:37:00.360Z,27.10
2019-05-26T04:37:40.225Z,27.10
2019-05-26T04:38:19.487Z,27.10
2019-05-26T04:38:58.848Z,27.10
2019-05-26T04:39:38.689Z,27.10
2019-05-26T04:40:26.504Z,27.10
2019-05-26T04:40:58.380Z,27.10
2019-05-26T04:42:51.237Z,27.10
2019-05-26T04:43:30.321Z,27.10
2019-05-26T04:44:09.404Z,27.10
2019-05-26T04:44:48.330Z,27.20
2019-05-26T04:45:27.664Z,27.10
2019-05-26T04:46:06.843Z,27.10
2019-05-26T04:46:46.005Z,27.20
2019-05-26T04:47:25.051Z,27.20
2019-05-26T04:48:04.695Z,27.20
2019-05-26T04:48:43.127Z,27.20
2019-05-26T04:49:23.195Z,27.20
2019-05-26T04:50:02.552Z,27.20
2019-05-26T04:50:41.405Z,27.20
2019-05-26T04:51:21.106Z,27.20
2019-05-26T04:52:01.165Z,27.20
2019-05-26T04:52:40.248Z,27.30
2019-05-26T04:53:19.736Z,27.30
2019-05-26T04:53:59.180Z,27.30
2019-05-26T04:54:38.248Z,27.30
2019-05-26T04:55:20.924Z,27.30
2019-05-26T04:56:00.931Z,27.30
2019-05-26T04:56:40.109Z,27.30
2019-05-26T04:57:19.902Z,27.40
2019-05-26T04:57:59.674Z,27.30
2019-05-26T04:58:39.091Z,27.30
2019-05-26T04:59:18.826Z,27.40
2019-05-26T04:59:59.115Z,27.40
2019-05-26T05:00:38.216Z,27.40
2019-05-26T05:01:17.995Z,27.40
2019-05-26T05:01:57.930Z,27.40
2019-05-26T05:02:36.819Z,27.40
2019-05-26T05:03:16.244Z,27.40
2019-05-26T05:03:55.811Z,27.40
2019-05-26T05:04:34.831Z,27.40
2019-05-26T05:05:14.737Z,27.40
2019-05-26T05:05:54.244Z,27.40
2019-05-26T05:06:33.120Z,27.40
2019-05-26T05:07:12.506Z,27.40
2019-05-26T05:07:52.141Z,27.40
2019-05-26T05:08:31.302Z,27.40
2019-05-26T05:09:11.643Z,27.40
2019-05-26T05:09:51.418Z,27.50
2019-05-26T05:10:42.035Z,27.50
2019-05-26T05:11:12.178Z,27.50
2019-05-26T05:11:52.016Z,27.50
2019-05-26T05:12:31.956Z,27.50
2019-05-26T05:13:11.428Z,27.50
2019-05-26T05:13:50.799Z,27.50
2019-05-26T05:14:30.155Z,27.50
2019-05-26T05:15:09.754Z,27.60
2019-05-26T05:15:48.926Z,27.60
2019-05-26T05:16:27.824Z,27.60
2019-05-26T05:17:07.682Z,27.60
2019-05-26T05:17:47.267Z,27.60
2019-05-26T05:18:26.519Z,27.60
2019-05-26T05:19:05.904Z,27.60
2019-05-26T05:19:45.936Z,27.60
2019-05-26T05:20:24.999Z,27.60
2019-05-26T05:21:04.447Z,27.60
2019-05-26T05:21:44.363Z,27.70
2019-05-26T05:22:23.226Z,27.70
2019-05-26T05:23:03.071Z,27.70
2019-05-26T05:23:42.539Z,27.70
2019-05-26T05:24:22.128Z,27.70
2019-05-26T05:25:01.824Z,27.70
2019-05-26T05:25:42.175Z,27.70
2019-05-26T05:26:21.749Z,27.70
2019-05-26T05:27:01.478Z,27.70
2019-05-26T05:27:40.805Z,27.70
2019-05-26T05:28:19.931Z,27.70
2019-05-26T05:28:59.401Z,27.80
2019-05-26T05:29:38.939Z,27.80
2019-05-26T05:30:18.098Z,27.80
2019-05-26T05:30:57.645Z,27.80
2019-05-26T05:31:37.115Z,27.80
2019-05-26T05:32:16.199Z,27.80
2019-05-26T05:32:56.037Z,27.80
2019-05-26T05:33:35.731Z,27.80
2019-05-26T05:34:14.788Z,27.80
2019-05-26T05:34:54.199Z,27.80
2019-05-26T05:35:33.459Z,27.80
2019-05-26T05:36:12.303Z,27.80
2019-05-26T05:36:51.813Z,27.80
2019-05-26T05:37:31.112Z,27.80
2019-05-26T05:38:10.193Z,27.80
2019-05-26T05:38:50.067Z,27.80
2019-05-26T05:39:29.849Z,27.80
2019-05-26T05:40:09.465Z,27.80
2019-05-26T05:40:58.795Z,27.80
2019-05-26T05:41:30.760Z,27.80
2019-05-26T05:42:09.951Z,27.80
2019-05-26T05:42:49.375Z,27.80
2019-05-26T05:43:28.826Z,27.80
2019-05-26T05:44:07.690Z,27.80
2019-05-26T05:44:47.291Z,27.80
2019-05-26T05:45:26.579Z,27.80
2019-05-26T05:46:05.415Z,27.90
2019-05-26T05:46:46.837Z,27.90
2019-05-26T05:47:26.287Z,27.90
2019-05-26T05:48:05.352Z,27.90
2019-05-26T05:48:44.896Z,27.90
2019-05-26T05:49:24.060Z,27.90
2019-05-26T05:50:03.103Z,28.00
2019-05-26T05:50:42.644Z,28.00
2019-05-26T05:51:22.502Z,28.00
2019-05-26T05:52:01.895Z,28.00
2019-05-26T05:52:41.827Z,28.10
2019-05-26T05:53:21.419Z,28.20
2019-05-26T05:54:00.418Z,28.30
2019-05-26T05:54:39.839Z,28.30
2019-05-26T05:55:19.638Z,28.30
2019-05-26T05:55:58.890Z,28.30
2019-05-26T05:56:38.219Z,28.40
2019-05-26T05:57:18.511Z,28.30
2019-05-26T05:57:58.048Z,28.40
2019-05-26T05:58:37.916Z,28.40
2019-05-26T05:59:17.728Z,28.40
2019-05-26T05:59:56.207Z,28.40
2019-05-26T06:00:36.196Z,28.40
2019-05-26T06:01:15.554Z,28.40
2019-05-26T06:01:54.988Z,28.50
2019-05-26T06:02:34.567Z,28.50
2019-05-26T06:03:13.795Z,28.50
2019-05-26T06:03:53.113Z,28.50
2019-05-26T06:04:32.094Z,28.50
2019-05-26T06:05:11.120Z,28.50
2019-05-26T06:05:49.580Z,28.50
2019-05-26T06:06:28.563Z,28.50
2019-05-26T06:07:07.622Z,28.50
2019-05-26T06:07:47.448Z,28.50
2019-05-26T06:08:26.964Z,28.60
2019-05-26T06:09:06.875Z,28.60
2019-05-26T06:09:45.507Z,28.60
2019-05-26T06:10:26.392Z,28.60
2019-05-26T06:11:15.884Z,28.60
2019-05-26T06:11:46.647Z,28.60
2019-05-26T06:12:25.716Z,28.60
2019-05-26T06:13:04.736Z,28.60
2019-05-26T06:13:44.474Z,28.60
2019-05-26T06:14:23.599Z,28.70
2019-05-26T06:15:02.648Z,28.70
2019-05-26T06:15:41.075Z,28.70
2019-05-26T06:16:20.023Z,28.70
2019-05-26T06:16:58.991Z,28.70
2019-05-26T06:17:37.482Z,28.70
2019-05-26T06:18:16.454Z,28.70
2019-05-26T06:18:55.463Z,28.70
2019-05-26T06:19:33.818Z,28.70
2019-05-26T06:20:12.798Z,28.80
2019-05-26T06:20:51.824Z,28.80
2019-05-26T06:21:30.357Z,28.80
2019-05-26T06:22:09.956Z,28.90
2019-05-26T06:22:48.891Z,28.90
2019-05-26T06:23:27.475Z,28.90
2019-05-26T06:24:06.467Z,28.90
2019-05-26T06:24:45.393Z,28.90
2019-05-26T06:25:23.841Z,28.90
2019-05-26T06:26:02.930Z,28.90
2019-05-26T06:26:42.011Z,28.90
2019-05-26T06:27:20.506Z,28.90
2019-05-26T06:27:59.594Z,28.90
2019-05-26T06:28:38.998Z,28.90
2019-05-26T06:29:17.432Z,28.90
2019-05-26T06:29:59.236Z,28.90
2019-05-26T06:30:36.839Z,28.90
2019-05-26T06:31:15.229Z,29.00
2019-05-26T06:31:54.545Z,29.00
2019-05-26T06:32:34.060Z,29.00
2019-05-26T06:33:12.599Z,29.00
2019-05-26T06:33:51.624Z,29.00
2019-05-26T06:34:30.655Z,29.00
2019-05-26T06:35:09.014Z,29.00
2019-05-26T06:35:48.016Z,29.00
2019-05-26T06:36:27.056Z,29.00
2019-05-26T06:37:05.534Z,29.00
2019-05-26T06:37:44.768Z,29.00
2019-05-26T06:38:23.761Z,29.00
2019-05-26T06:39:02.506Z,29.00
2019-05-26T06:39:41.918Z,29.00
2019-05-26T06:40:21.417Z,29.00
2019-05-26T06:41:00.968Z,29.00
2019-05-26T06:41:39.983Z,29.10
2019-05-26T06:42:19.070Z,29.00
2019-05-26T06:42:57.455Z,29.10
2019-05-26T06:43:36.664Z,29.10
2019-05-26T06:44:16.083Z,29.00
2019-05-26T06:44:54.711Z,29.00
2019-05-26T06:45:33.674Z,29.10
2019-05-26T06:46:12.704Z,29.00
2019-05-26T06:46:51.115Z,29.10
2019-05-26T06:47:30.756Z,29.10
2019-05-26T06:48:09.807Z,29.10
2019-05-26T06:48:49.616Z,29.10
2019-05-26T06:49:28.812Z,29.10
2019-05-26T06:50:09.271Z,29.20
2019-05-26T06:50:47.843Z,29.10
2019-05-26T06:51:27.147Z,29.10
2019-05-26T06:52:06.916Z,29.20
2019-05-26T06:52:45.522Z,29.20
2019-05-26T06:53:24.584Z,29.20
2019-05-26T06:54:03.643Z,29.20
2019-05-26T06:54:42.199Z,29.20
2019-05-26T06:55:21.750Z,29.20
2019-05-26T06:56:00.747Z,29.20
2019-05-26T06:56:39.334Z,29.20
2019-05-26T06:57:19.305Z,29.20
2019-05-26T06:57:58.345Z,29.20
2019-05-26T06:58:36.887Z,29.20
2019-05-26T06:59:16.604Z,29.20
2019-05-26T06:59:56.300Z,29.30
2019-05-26T07:00:35.339Z,29.20
2019-05-26T07:01:16.635Z,29.20
2019-05-26T07:01:56.083Z,29.30
2019-05-26T07:02:34.756Z,29.20
2019-05-26T07:03:13.795Z,29.20
2019-05-26T07:03:53.622Z,29.20
2019-05-26T07:04:32.569Z,29.20
2019-05-26T07:05:12.116Z,29.20
2019-05-26T07:05:51.240Z,29.30
2019-05-26T07:06:29.649Z,29.20
2019-05-26T07:07:08.762Z,29.20
2019-05-26T07:07:48.319Z,29.20
2019-05-26T07:08:26.769Z,29.30
2019-05-26T07:09:06.451Z,29.20
2019-05-26T07:09:45.499Z,29.30
2019-05-26T07:10:23.939Z,29.30
2019-05-26T07:11:03.107Z,29.30
2019-05-26T07:11:54.247Z,29.30
2019-05-26T07:12:22.524Z,29.20
2019-05-26T07:13:01.565Z,29.30
2019-05-26T07:13:40.721Z,29.20
2019-05-26T07:14:19.238Z,29.30
2019-05-26T07:14:58.490Z,29.20
2019-05-26T07:15:37.748Z,29.30
2019-05-26T07:16:16.308Z,29.30
2019-05-26T07:16:56.019Z,29.20
2019-05-26T07:17:35.728Z,29.30
2019-05-26T07:18:14.621Z,29.20
2019-05-26T07:18:54.531Z,29.30
2019-05-26T07:19:34.875Z,29.20
2019-05-26T07:20:14.150Z,29.20
2019-05-26T07:20:54.056Z,29.30
2019-05-26T07:21:33.812Z,29.30
2019-05-26T07:22:12.364Z,29.20
2019-05-26T07:22:51.435Z,29.20
2019-05-26T07:23:30.595Z,29.30
2019-05-26T07:24:09.116Z,29.30
2019-05-26T07:24:48.194Z,29.30
2019-05-26T07:25:27.267Z,29.30
2019-05-26T07:26:05.852Z,29.30
2019-05-26T07:26:44.931Z,29.30
2019-05-26T07:27:25.258Z,29.30
2019-05-26T07:28:04.890Z,29.30
2019-05-26T07:28:44.115Z,29.30
2019-05-26T07:29:23.202Z,29.30
2019-05-26T07:30:01.631Z,29.30
2019-05-26T07:30:40.831Z,29.30
2019-05-26T07:31:20.104Z,29.30
2019-05-26T07:31:58.605Z,29.30
2019-05-26T07:32:37.718Z,29.20
2019-05-26T07:33:17.414Z,29.20
2019-05-26T07:33:56.315Z,29.30
2019-05-26T07:34:35.930Z,29.30
2019-05-26T07:35:15.417Z,29.20
2019-05-26T07:35:53.829Z,29.20
2019-05-26T07:36:32.795Z,29.20
2019-05-26T07:37:11.776Z,29.30
2019-05-26T07:37:50.161Z,29.30
2019-05-26T07:38:29.122Z,29.30
2019-05-26T07:39:09.683Z,29.30
2019-05-26T07:39:48.046Z,29.20
2019-05-26T07:40:27.140Z,29.20
2019-05-26T07:41:06.112Z,29.30
2019-05-26T07:41:45.043Z,29.20
2019-05-26T07:42:24.177Z,29.30
2019-05-26T07:43:03.926Z,29.30
2019-05-26T07:43:42.392Z,29.30
2019-05-26T07:44:21.460Z,29.30
2019-05-26T07:45:00.454Z,29.30
2019-05-26T07:45:38.826Z,29.30
2019-05-26T07:46:19.070Z,29.30
2019-05-26T07:46:58.056Z,29.30
2019-05-26T07:47:36.483Z,29.30
2019-05-26T07:48:16.077Z,29.30
2019-05-26T07:48:55.178Z,29.30
2019-05-26T07:49:33.548Z,29.30
2019-05-26T07:50:12.535Z,29.30
2019-05-26T07:51:09.619Z,29.30
2019-05-26T07:51:48.043Z,29.30
2019-05-26T07:52:27.159Z,29.20
2019-05-26T07:53:07.182Z,29.20
2019-05-26T07:53:45.633Z,29.20
2019-05-26T07:54:25.890Z,29.20
2019-05-26T07:55:05.198Z,29.20
2019-05-26T07:55:43.587Z,29.20
2019-05-26T07:56:22.590Z,29.20
2019-05-26T07:57:01.781Z,29.20
2019-05-26T07:57:40.231Z,29.20
2019-05-26T07:58:19.232Z,29.20
2019-05-26T07:58:58.182Z,29.20
2019-05-26T07:59:36.606Z,29.20
2019-05-26T08:00:15.653Z,29.20
2019-05-26T08:00:54.636Z,29.20
2019-05-26T08:01:36.281Z,29.20
2019-05-26T08:02:13.444Z,29.20
2019-05-26T08:02:52.524Z,29.20
2019-05-26T08:03:31.019Z,29.20
2019-05-26T08:04:10.087Z,29.20
2019-05-26T08:04:49.256Z,29.20
2019-05-26T08:05:27.665Z,29.20
2019-05-26T08:06:06.771Z,29.20
2019-05-26T08:06:45.770Z,29.20
2019-05-26T08:07:24.127Z,29.20
2019-05-26T08:08:12.178Z,29.30
2019-05-26T08:08:43.571Z,29.20
2019-05-26T08:09:22.024Z,29.20
2019-05-26T08:10:03.987Z,29.30
2019-05-26T08:10:43.051Z,29.20
2019-05-26T08:11:21.595Z,29.20
2019-05-26T08:12:00.594Z,29.20
2019-05-26T08:12:40.888Z,29.20
2019-05-26T08:13:19.287Z,29.20
2019-05-26T08:13:58.304Z,29.30
2019-05-26T08:14:37.972Z,29.30
2019-05-26T08:15:17.151Z,29.40
2019-05-26T08:15:56.311Z,29.40
2019-05-26T08:16:35.337Z,29.40
2019-05-26T08:17:15.073Z,29.50
2019-05-26T08:17:54.079Z,29.50
2019-05-26T08:18:33.065Z,29.50
2019-05-26T08:19:11.553Z,29.50
2019-05-26T08:19:50.668Z,29.50
2019-05-26T08:20:29.686Z,29.50
2019-05-26T08:21:11.219Z,29.50
2019-05-26T08:21:50.239Z,29.50
2019-05-26T08:22:29.286Z,29.50
2019-05-26T08:23:07.812Z,29.50
2019-05-26T08:23:46.902Z,29.50
2019-05-26T08:24:27.728Z,29.50
2019-05-26T08:25:06.243Z,29.50
2019-05-26T08:25:45.287Z,29.40
2019-05-26T08:26:24.299Z,29.40
2019-05-26T08:27:02.659Z,29.40
2019-05-26T08:27:43.290Z,29.40
2019-05-26T08:28:22.328Z,29.40
2019-05-26T08:29:00.795Z,29.40
2019-05-26T08:29:39.920Z,29.40
2019-05-26T08:30:19.493Z,29.40
2019-05-26T08:30:57.934Z,29.30
2019-05-26T08:31:36.999Z,29.30
2019-05-26T08:32:16.139Z,29.30
2019-05-26T08:32:54.552Z,29.30
2019-05-26T08:33:33.636Z,29.30
2019-05-26T08:34:12.678Z,29.30
2019-05-26T08:34:51.204Z,29.30
2019-05-26T08:35:30.208Z,29.30
2019-05-26T08:36:09.307Z,29.40
2019-05-26T08:36:47.755Z,29.40
2019-05-26T08:37:26.773Z,29.30
2019-05-26T08:38:07.057Z,29.40
2019-05-26T08:38:45.399Z,29.40
2019-05-26T08:39:24.431Z,29.30
2019-05-26T08:40:20.494Z,29.40